sensor_id;sensor_type;location;lat;lon;timestamp;P1;durP1;ratioP1;P2;durP2;ratioP2
54123;SDS011;55741;53.252;5.788;2023-04-28T00:00:23;10.98;;;7.70;;
54123;SDS011;55741;53.252;5.788;2023-04-28T00:02:49;8.85;;;7.07;;
54123;SDS011;55741;53.252;5.788;2023-04-28T00:05:15;11.25;;;7.30;;
54123;SDS011;55741;53.252;5.788;2023-04-28T00:07:40;11.10;;;7.78;;
54123;SDS011;55741;53.252;5.788;2023-04-28T00:10:06;11.02;;;6.70;;
54123;SDS011;55741;53.252;5.788;2023-04-28T00:12:33;11.45;;;6.63;;
54123;SDS011;55741;53.252;5.788;2023-04-28T00:15:00;9.25;;;6.40;;
54123;SDS011;55741;53.252;5.788;2023-04-28T00:17:26;8.68;;;6.70;;
54123;SDS011;55741;53.252;5.788;2023-04-28T00:19:52;10.93;;;6.45;;
54123;SDS011;55741;53.252;5.788;2023-04-28T00:22:17;13.98;;;6.65;;
54123;SDS011;55741;53.252;5.788;2023-04-28T00:24:43;9.70;;;6.63;;
54123;SDS011;55741;53.252;5.788;2023-04-28T00:27:09;9.50;;;6.32;;
54123;SDS011;55741;53.252;5.788;2023-04-28T00:29:35;10.95;;;6.63;;
54123;SDS011;55741;53.252;5.788;2023-04-28T00:32:01;8.98;;;6.47;;
54123;SDS011;55741;53.252;5.788;2023-04-28T00:34:27;12.18;;;6.82;;
54123;SDS011;55741;53.252;5.788;2023-04-28T00:36:54;11.50;;;5.90;;
54123;SDS011;55741;53.252;5.788;2023-04-28T00:39:21;8.90;;;5.85;;
54123;SDS011;55741;53.252;5.788;2023-04-28T00:41:47;11.25;;;6.47;;
54123;SDS011;55741;53.252;5.788;2023-04-28T00:44:13;7.55;;;5.63;;
54123;SDS011;55741;53.252;5.788;2023-04-28T00:46:39;11.30;;;6.20;;
54123;SDS011;55741;53.252;5.788;2023-04-28T00:49:05;7.80;;;5.45;;
54123;SDS011;55741;53.252;5.788;2023-04-28T00:51:31;12.10;;;6.78;;
54123;SDS011;55741;53.252;5.788;2023-04-28T00:53:57;10.23;;;6.15;;
54123;SDS011;55741;53.252;5.788;2023-04-28T00:56:24;9.15;;;5.70;;
54123;SDS011;55741;53.252;5.788;2023-04-28T00:58:52;8.68;;;6.30;;
54123;SDS011;55741;53.252;5.788;2023-04-28T01:01:18;10.20;;;6.25;;
54123;SDS011;55741;53.252;5.788;2023-04-28T01:03:44;10.18;;;6.63;;
54123;SDS011;55741;53.252;5.788;2023-04-28T01:06:10;13.75;;;6.43;;
54123;SDS011;55741;53.252;5.788;2023-04-28T01:08:37;7.95;;;6.13;;
54123;SDS011;55741;53.252;5.788;2023-04-28T01:11:03;8.32;;;6.18;;
54123;SDS011;55741;53.252;5.788;2023-04-28T01:13:29;9.25;;;6.70;;
54123;SDS011;55741;53.252;5.788;2023-04-28T01:15:57;7.50;;;6.30;;
54123;SDS011;55741;53.252;5.788;2023-04-28T01:18:23;9.93;;;6.70;;
54123;SDS011;55741;53.252;5.788;2023-04-28T01:20:50;8.93;;;6.45;;
54123;SDS011;55741;53.252;5.788;2023-04-28T01:23:16;9.75;;;6.47;;
54123;SDS011;55741;53.252;5.788;2023-04-28T01:25:42;9.70;;;6.90;;
54123;SDS011;55741;53.252;5.788;2023-04-28T01:28:09;12.43;;;7.50;;
54123;SDS011;55741;53.252;5.788;2023-04-28T01:30:35;10.13;;;6.93;;
54123;SDS011;55741;53.252;5.788;2023-04-28T01:33:02;10.82;;;6.55;;
54123;SDS011;55741;53.252;5.788;2023-04-28T01:35:28;9.48;;;7.05;;
54123;SDS011;55741;53.252;5.788;2023-04-28T01:37:54;10.40;;;6.60;;
54123;SDS011;55741;53.252;5.788;2023-04-28T01:40:20;9.05;;;6.72;;
54123;SDS011;55741;53.252;5.788;2023-04-28T01:42:46;14.27;;;7.35;;
54123;SDS011;55741;53.252;5.788;2023-04-28T01:45:12;9.68;;;6.88;;
54123;SDS011;55741;53.252;5.788;2023-04-28T01:47:37;10.38;;;6.85;;
54123;SDS011;55741;53.252;5.788;2023-04-28T01:50:04;9.95;;;7.15;;
54123;SDS011;55741;53.252;5.788;2023-04-28T01:52:30;13.15;;;7.35;;
54123;SDS011;55741;53.252;5.788;2023-04-28T01:54:56;10.75;;;7.45;;
54123;SDS011;55741;53.252;5.788;2023-04-28T01:57:22;10.13;;;7.22;;
54123;SDS011;55741;53.252;5.788;2023-04-28T01:59:47;11.30;;;7.75;;
54123;SDS011;55741;53.252;5.788;2023-04-28T02:02:13;11.32;;;7.43;;
54123;SDS011;55741;53.252;5.788;2023-04-28T02:04:39;13.35;;;7.70;;
54123;SDS011;55741;53.252;5.788;2023-04-28T02:07:05;11.52;;;8.15;;
54123;SDS011;55741;53.252;5.788;2023-04-28T02:09:32;11.48;;;7.57;;
54123;SDS011;55741;53.252;5.788;2023-04-28T02:11:58;10.57;;;7.25;;
54123;SDS011;55741;53.252;5.788;2023-04-28T02:14:24;11.20;;;7.50;;
54123;SDS011;55741;53.252;5.788;2023-04-28T02:16:52;17.17;;;8.18;;
54123;SDS011;55741;53.252;5.788;2023-04-28T02:19:18;13.52;;;8.63;;
54123;SDS011;55741;53.252;5.788;2023-04-28T02:21:44;11.18;;;7.30;;
54123;SDS011;55741;53.252;5.788;2023-04-28T02:24:10;11.98;;;8.02;;
54123;SDS011;55741;53.252;5.788;2023-04-28T02:26:36;10.30;;;7.30;;
54123;SDS011;55741;53.252;5.788;2023-04-28T02:29:02;9.52;;;7.13;;
54123;SDS011;55741;53.252;5.788;2023-04-28T02:31:30;12.13;;;7.07;;
54123;SDS011;55741;53.252;5.788;2023-04-28T02:33:56;10.90;;;7.90;;
54123;SDS011;55741;53.252;5.788;2023-04-28T02:36:22;12.93;;;7.80;;
54123;SDS011;55741;53.252;5.788;2023-04-28T02:38:47;10.95;;;7.90;;
54123;SDS011;55741;53.252;5.788;2023-04-28T02:41:13;10.77;;;6.75;;
54123;SDS011;55741;53.252;5.788;2023-04-28T02:43:39;12.82;;;7.70;;
54123;SDS011;55741;53.252;5.788;2023-04-28T02:46:05;11.50;;;8.27;;
54123;SDS011;55741;53.252;5.788;2023-04-28T02:48:32;13.07;;;7.22;;
54123;SDS011;55741;53.252;5.788;2023-04-28T02:51:00;10.52;;;7.20;;
54123;SDS011;55741;53.252;5.788;2023-04-28T02:53:26;12.95;;;8.57;;
54123;SDS011;55741;53.252;5.788;2023-04-28T02:55:52;13.45;;;8.13;;
54123;SDS011;55741;53.252;5.788;2023-04-28T02:58:18;15.77;;;8.13;;
54123;SDS011;55741;53.252;5.788;2023-04-28T03:00:45;12.95;;;9.27;;
54123;SDS011;55741;53.252;5.788;2023-04-28T03:03:11;12.75;;;8.68;;
54123;SDS011;55741;53.252;5.788;2023-04-28T03:05:37;14.25;;;9.02;;
54123;SDS011;55741;53.252;5.788;2023-04-28T03:08:03;12.75;;;9.35;;
54123;SDS011;55741;53.252;5.788;2023-04-28T03:10:29;13.00;;;8.85;;
54123;SDS011;55741;53.252;5.788;2023-04-28T03:12:55;11.77;;;8.77;;
54123;SDS011;55741;53.252;5.788;2023-04-28T03:15:21;13.13;;;8.60;;
54123;SDS011;55741;53.252;5.788;2023-04-28T03:17:48;13.40;;;9.40;;
54123;SDS011;55741;53.252;5.788;2023-04-28T03:20:14;12.55;;;8.82;;
54123;SDS011;55741;53.252;5.788;2023-04-28T03:22:40;18.90;;;10.43;;
54123;SDS011;55741;53.252;5.788;2023-04-28T03:25:06;15.65;;;9.75;;
54123;SDS011;55741;53.252;5.788;2023-04-28T03:27:32;13.95;;;8.93;;
54123;SDS011;55741;53.252;5.788;2023-04-28T03:29:58;14.07;;;9.15;;
54123;SDS011;55741;53.252;5.788;2023-04-28T03:32:24;13.35;;;9.77;;
54123;SDS011;55741;53.252;5.788;2023-04-28T03:34:50;14.18;;;10.05;;
54123;SDS011;55741;53.252;5.788;2023-04-28T03:37:15;15.88;;;10.45;;
54123;SDS011;55741;53.252;5.788;2023-04-28T03:39:41;16.38;;;10.25;;
54123;SDS011;55741;53.252;5.788;2023-04-28T03:42:07;14.50;;;10.15;;
54123;SDS011;55741;53.252;5.788;2023-04-28T03:44:33;15.32;;;10.65;;
54123;SDS011;55741;53.252;5.788;2023-04-28T03:46:58;13.48;;;9.85;;
54123;SDS011;55741;53.252;5.788;2023-04-28T03:49:25;15.15;;;10.23;;
54123;SDS011;55741;53.252;5.788;2023-04-28T03:51:51;14.93;;;10.73;;
54123;SDS011;55741;53.252;5.788;2023-04-28T03:54:17;17.17;;;10.65;;
54123;SDS011;55741;53.252;5.788;2023-04-28T03:56:43;16.85;;;10.75;;
54123;SDS011;55741;53.252;5.788;2023-04-28T03:59:09;13.65;;;10.52;;
54123;SDS011;55741;53.252;5.788;2023-04-28T04:01:36;13.63;;;10.65;;
54123;SDS011;55741;53.252;5.788;2023-04-28T04:04:02;19.30;;;11.45;;
54123;SDS011;55741;53.252;5.788;2023-04-28T04:06:28;19.13;;;11.98;;
54123;SDS011;55741;53.252;5.788;2023-04-28T04:08:55;18.85;;;11.95;;
54123;SDS011;55741;53.252;5.788;2023-04-28T04:11:21;16.77;;;12.15;;
54123;SDS011;55741;53.252;5.788;2023-04-28T04:13:46;14.38;;;11.48;;
54123;SDS011;55741;53.252;5.788;2023-04-28T04:16:12;20.90;;;12.20;;
54123;SDS011;55741;53.252;5.788;2023-04-28T04:18:41;16.77;;;12.13;;
54123;SDS011;55741;53.252;5.788;2023-04-28T04:21:07;16.48;;;12.95;;
54123;SDS011;55741;53.252;5.788;2023-04-28T04:23:33;16.55;;;11.52;;
54123;SDS011;55741;53.252;5.788;2023-04-28T04:25:59;17.13;;;12.40;;
54123;SDS011;55741;53.252;5.788;2023-04-28T04:28:24;20.52;;;12.48;;
54123;SDS011;55741;53.252;5.788;2023-04-28T04:30:50;18.65;;;12.80;;
54123;SDS011;55741;53.252;5.788;2023-04-28T04:33:16;17.80;;;12.57;;
54123;SDS011;55741;53.252;5.788;2023-04-28T04:35:42;17.98;;;12.45;;
54123;SDS011;55741;53.252;5.788;2023-04-28T04:38:08;21.50;;;14.30;;
54123;SDS011;55741;53.252;5.788;2023-04-28T04:43:20;21.55;;;12.93;;
54123;SDS011;55741;53.252;5.788;2023-04-28T04:45:46;16.50;;;12.15;;
54123;SDS011;55741;53.252;5.788;2023-04-28T04:48:12;19.27;;;12.88;;
54123;SDS011;55741;53.252;5.788;2023-04-28T04:50:39;22.80;;;13.57;;
54123;SDS011;55741;53.252;5.788;2023-04-28T04:53:05;20.05;;;14.13;;
54123;SDS011;55741;53.252;5.788;2023-04-28T04:55:31;17.45;;;13.73;;
54123;SDS011;55741;53.252;5.788;2023-04-28T04:57:57;18.50;;;13.40;;
54123;SDS011;55741;53.252;5.788;2023-04-28T05:00:23;22.30;;;14.85;;
54123;SDS011;55741;53.252;5.788;2023-04-28T05:02:49;19.05;;;14.48;;
54123;SDS011;55741;53.252;5.788;2023-04-28T05:05:14;26.02;;;15.00;;
54123;SDS011;55741;53.252;5.788;2023-04-28T05:07:40;23.38;;;13.32;;
54123;SDS011;55741;53.252;5.788;2023-04-28T05:10:07;20.85;;;14.88;;
54123;SDS011;55741;53.252;5.788;2023-04-28T05:12:35;19.88;;;13.88;;
54123;SDS011;55741;53.252;5.788;2023-04-28T05:15:03;21.30;;;14.40;;
54123;SDS011;55741;53.252;5.788;2023-04-28T05:17:31;21.30;;;15.13;;
54123;SDS011;55741;53.252;5.788;2023-04-28T05:19:58;20.17;;;14.13;;
54123;SDS011;55741;53.252;5.788;2023-04-28T05:22:24;20.58;;;14.60;;
54123;SDS011;55741;53.252;5.788;2023-04-28T05:24:51;20.27;;;14.85;;
54123;SDS011;55741;53.252;5.788;2023-04-28T05:27:17;21.17;;;14.90;;
54123;SDS011;55741;53.252;5.788;2023-04-28T05:29:43;26.02;;;15.75;;
54123;SDS011;55741;53.252;5.788;2023-04-28T05:32:09;23.10;;;14.13;;
54123;SDS011;55741;53.252;5.788;2023-04-28T05:34:35;21.88;;;15.38;;
54123;SDS011;55741;53.252;5.788;2023-04-28T05:37:01;19.63;;;14.98;;
54123;SDS011;55741;53.252;5.788;2023-04-28T05:39:27;18.77;;;14.30;;
54123;SDS011;55741;53.252;5.788;2023-04-28T05:41:52;21.35;;;14.43;;
54123;SDS011;55741;53.252;5.788;2023-04-28T05:44:18;21.13;;;14.55;;
54123;SDS011;55741;53.252;5.788;2023-04-28T05:46:44;19.30;;;14.40;;
54123;SDS011;55741;53.252;5.788;2023-04-28T05:49:10;20.48;;;14.35;;
54123;SDS011;55741;53.252;5.788;2023-04-28T05:51:36;18.92;;;12.68;;
54123;SDS011;55741;53.252;5.788;2023-04-28T05:54:02;19.30;;;15.32;;
54123;SDS011;55741;53.252;5.788;2023-04-28T05:56:28;20.63;;;14.30;;
54123;SDS011;55741;53.252;5.788;2023-04-28T05:58:54;20.83;;;14.65;;
54123;SDS011;55741;53.252;5.788;2023-04-28T06:01:21;19.42;;;12.50;;
54123;SDS011;55741;53.252;5.788;2023-04-28T06:03:47;22.73;;;14.52;;
54123;SDS011;55741;53.252;5.788;2023-04-28T06:06:13;23.55;;;14.27;;
54123;SDS011;55741;53.252;5.788;2023-04-28T06:08:39;18.35;;;14.45;;
54123;SDS011;55741;53.252;5.788;2023-04-28T06:11:05;20.80;;;13.90;;
54123;SDS011;55741;53.252;5.788;2023-04-28T06:13:31;17.55;;;12.95;;
54123;SDS011;55741;53.252;5.788;2023-04-28T06:15:57;24.00;;;14.52;;
54123;SDS011;55741;53.252;5.788;2023-04-28T06:18:23;19.05;;;13.32;;
54123;SDS011;55741;53.252;5.788;2023-04-28T06:20:51;18.83;;;13.35;;
54123;SDS011;55741;53.252;5.788;2023-04-28T06:23:17;20.20;;;13.13;;
54123;SDS011;55741;53.252;5.788;2023-04-28T06:25:43;19.48;;;13.48;;
54123;SDS011;55741;53.252;5.788;2023-04-28T06:28:08;19.25;;;13.15;;
54123;SDS011;55741;53.252;5.788;2023-04-28T06:30:36;23.88;;;14.10;;
54123;SDS011;55741;53.252;5.788;2023-04-28T06:33:02;19.80;;;13.90;;
54123;SDS011;55741;53.252;5.788;2023-04-28T06:35:29;24.98;;;14.00;;
54123;SDS011;55741;53.252;5.788;2023-04-28T06:37:55;19.83;;;13.55;;
54123;SDS011;55741;53.252;5.788;2023-04-28T06:40:21;20.92;;;13.77;;
54123;SDS011;55741;53.252;5.788;2023-04-28T06:42:47;18.75;;;13.02;;
54123;SDS011;55741;53.252;5.788;2023-04-28T06:45:12;17.02;;;12.98;;
54123;SDS011;55741;53.252;5.788;2023-04-28T06:47:38;20.63;;;13.18;;
54123;SDS011;55741;53.252;5.788;2023-04-28T06:50:05;22.80;;;12.90;;
54123;SDS011;55741;53.252;5.788;2023-04-28T06:52:31;17.52;;;12.30;;
54123;SDS011;55741;53.252;5.788;2023-04-28T06:54:57;18.58;;;12.45;;
54123;SDS011;55741;53.252;5.788;2023-04-28T06:57:23;18.52;;;13.25;;
54123;SDS011;55741;53.252;5.788;2023-04-28T06:59:49;16.85;;;12.45;;
54123;SDS011;55741;53.252;5.788;2023-04-28T07:02:15;18.52;;;12.35;;
54123;SDS011;55741;53.252;5.788;2023-04-28T07:04:40;15.70;;;11.82;;
54123;SDS011;55741;53.252;5.788;2023-04-28T07:07:06;20.83;;;13.35;;
54123;SDS011;55741;53.252;5.788;2023-04-28T07:09:33;16.65;;;12.00;;
54123;SDS011;55741;53.252;5.788;2023-04-28T07:11:59;19.70;;;12.45;;
54123;SDS011;55741;53.252;5.788;2023-04-28T07:14:25;16.45;;;12.13;;
54123;SDS011;55741;53.252;5.788;2023-04-28T07:16:51;16.52;;;12.52;;
54123;SDS011;55741;53.252;5.788;2023-04-28T07:19:16;16.55;;;12.20;;
54123;SDS011;55741;53.252;5.788;2023-04-28T07:21:44;17.83;;;12.32;;
54123;SDS011;55741;53.252;5.788;2023-04-28T07:24:10;20.55;;;12.90;;
54123;SDS011;55741;53.252;5.788;2023-04-28T07:26:36;17.88;;;12.48;;
54123;SDS011;55741;53.252;5.788;2023-04-28T07:29:02;18.83;;;13.35;;
54123;SDS011;55741;53.252;5.788;2023-04-28T07:31:28;19.90;;;13.90;;
54123;SDS011;55741;53.252;5.788;2023-04-28T07:33:54;20.52;;;14.43;;
54123;SDS011;55741;53.252;5.788;2023-04-28T07:36:20;17.50;;;13.07;;
54123;SDS011;55741;53.252;5.788;2023-04-28T07:38:46;17.92;;;13.63;;
54123;SDS011;55741;53.252;5.788;2023-04-28T07:41:12;19.42;;;12.80;;
54123;SDS011;55741;53.252;5.788;2023-04-28T07:43:38;20.35;;;14.10;;
54123;SDS011;55741;53.252;5.788;2023-04-28T07:46:05;19.65;;;13.77;;
54123;SDS011;55741;53.252;5.788;2023-04-28T07:48:33;18.70;;;14.20;;
54123;SDS011;55741;53.252;5.788;2023-04-28T07:50:59;17.50;;;14.55;;
54123;SDS011;55741;53.252;5.788;2023-04-28T07:53:25;16.85;;;13.05;;
54123;SDS011;55741;53.252;5.788;2023-04-28T07:55:51;21.48;;;14.32;;
54123;SDS011;55741;53.252;5.788;2023-04-28T07:58:17;20.60;;;13.45;;
54123;SDS011;55741;53.252;5.788;2023-04-28T08:00:43;19.98;;;13.60;;
54123;SDS011;55741;53.252;5.788;2023-04-28T08:03:08;20.23;;;13.85;;
54123;SDS011;55741;53.252;5.788;2023-04-28T08:05:34;15.85;;;12.40;;
54123;SDS011;55741;53.252;5.788;2023-04-28T08:08:00;17.52;;;13.48;;
54123;SDS011;55741;53.252;5.788;2023-04-28T08:10:27;18.17;;;12.55;;
54123;SDS011;55741;53.252;5.788;2023-04-28T08:12:53;19.38;;;13.35;;
54123;SDS011;55741;53.252;5.788;2023-04-28T08:15:19;16.73;;;13.20;;
54123;SDS011;55741;53.252;5.788;2023-04-28T08:17:45;19.88;;;13.85;;
54123;SDS011;55741;53.252;5.788;2023-04-28T08:20:10;20.38;;;13.98;;
54123;SDS011;55741;53.252;5.788;2023-04-28T08:22:40;16.48;;;13.43;;
54123;SDS011;55741;53.252;5.788;2023-04-28T08:25:06;22.25;;;13.98;;
54123;SDS011;55741;53.252;5.788;2023-04-28T08:27:33;23.95;;;14.13;;
54123;SDS011;55741;53.252;5.788;2023-04-28T08:30:02;17.02;;;13.63;;
54123;SDS011;55741;53.252;5.788;2023-04-28T08:32:29;19.05;;;13.70;;
54123;SDS011;55741;53.252;5.788;2023-04-28T08:34:55;17.13;;;13.18;;
54123;SDS011;55741;53.252;5.788;2023-04-28T08:37:20;19.10;;;14.15;;
54123;SDS011;55741;53.252;5.788;2023-04-28T08:39:46;16.95;;;13.18;;
54123;SDS011;55741;53.252;5.788;2023-04-28T08:42:12;21.40;;;13.88;;
54123;SDS011;55741;53.252;5.788;2023-04-28T08:44:39;16.70;;;13.13;;
54123;SDS011;55741;53.252;5.788;2023-04-28T08:47:12;17.33;;;13.90;;
54123;SDS011;55741;53.252;5.788;2023-04-28T08:49:38;15.75;;;12.82;;
54123;SDS011;55741;53.252;5.788;2023-04-28T08:52:11;18.00;;;13.52;;
54123;SDS011;55741;53.252;5.788;2023-04-28T08:54:41;20.58;;;13.55;;
54123;SDS011;55741;53.252;5.788;2023-04-28T08:57:08;20.92;;;13.48;;
54123;SDS011;55741;53.252;5.788;2023-04-28T08:59:41;17.70;;;13.80;;
54123;SDS011;55741;53.252;5.788;2023-04-28T09:02:07;17.42;;;13.85;;
54123;SDS011;55741;53.252;5.788;2023-04-28T09:04:33;18.05;;;13.35;;
54123;SDS011;55741;53.252;5.788;2023-04-28T09:06:59;17.45;;;12.95;;
54123;SDS011;55741;53.252;5.788;2023-04-28T09:09:29;19.90;;;12.73;;
54123;SDS011;55741;53.252;5.788;2023-04-28T09:11:55;17.25;;;13.30;;
54123;SDS011;55741;53.252;5.788;2023-04-28T09:14:24;22.17;;;13.63;;
54123;SDS011;55741;53.252;5.788;2023-04-28T09:16:54;16.38;;;12.88;;
54123;SDS011;55741;53.252;5.788;2023-04-28T09:19:20;17.50;;;13.93;;
54123;SDS011;55741;53.252;5.788;2023-04-28T09:21:50;19.10;;;14.07;;
54123;SDS011;55741;53.252;5.788;2023-04-28T09:27:00;16.60;;;13.40;;
54123;SDS011;55741;53.252;5.788;2023-04-28T09:29:28;20.60;;;13.40;;
54123;SDS011;55741;53.252;5.788;2023-04-28T09:32:17;20.55;;;13.48;;
54123;SDS011;55741;53.252;5.788;2023-04-28T09:37:19;17.92;;;13.82;;
54123;SDS011;55741;53.252;5.788;2023-04-28T09:39:50;19.90;;;14.52;;
54123;SDS011;55741;53.252;5.788;2023-04-28T09:42:37;17.88;;;14.35;;
54123;SDS011;55741;53.252;5.788;2023-04-28T09:45:07;21.40;;;13.75;;
54123;SDS011;55741;53.252;5.788;2023-04-28T09:47:38;18.90;;;13.75;;
54123;SDS011;55741;53.252;5.788;2023-04-28T09:50:09;18.30;;;13.68;;
54123;SDS011;55741;53.252;5.788;2023-04-28T09:52:37;19.70;;;14.20;;
54123;SDS011;55741;53.252;5.788;2023-04-28T09:55:03;18.55;;;14.65;;
54123;SDS011;55741;53.252;5.788;2023-04-28T09:57:31;19.70;;;14.02;;
54123;SDS011;55741;53.252;5.788;2023-04-28T09:59:58;21.17;;;15.85;;
54123;SDS011;55741;53.252;5.788;2023-04-28T10:02:25;17.90;;;14.77;;
54123;SDS011;55741;53.252;5.788;2023-04-28T10:04:51;19.83;;;14.73;;
54123;SDS011;55741;53.252;5.788;2023-04-28T10:07:18;18.40;;;14.68;;
54123;SDS011;55741;53.252;5.788;2023-04-28T10:09:48;23.45;;;15.52;;
54123;SDS011;55741;53.252;5.788;2023-04-28T10:12:19;22.35;;;16.90;;
54123;SDS011;55741;53.252;5.788;2023-04-28T10:14:47;24.33;;;16.48;;
54123;SDS011;55741;53.252;5.788;2023-04-28T10:17:15;19.30;;;16.73;;
54123;SDS011;55741;53.252;5.788;2023-04-28T10:19:45;20.83;;;17.35;;
54123;SDS011;55741;53.252;5.788;2023-04-28T10:27:39;22.98;;;15.85;;
54123;SDS011;55741;53.252;5.788;2023-04-28T10:30:18;21.52;;;17.30;;
54123;SDS011;55741;53.252;5.788;2023-04-28T10:32:45;24.08;;;17.52;;
54123;SDS011;55741;53.252;5.788;2023-04-28T10:38:12;24.73;;;17.30;;
54123;SDS011;55741;53.252;5.788;2023-04-28T10:40:40;22.45;;;17.60;;
54123;SDS011;55741;53.252;5.788;2023-04-28T10:43:51;25.23;;;17.63;;
54123;SDS011;55741;53.252;5.788;2023-04-28T10:45:59;27.58;;;17.40;;
54123;SDS011;55741;53.252;5.788;2023-04-28T10:58:35;21.42;;;17.73;;
54123;SDS011;55741;53.252;5.788;2023-04-28T11:11:39;25.00;;;18.73;;
54123;SDS011;55741;53.252;5.788;2023-04-28T11:16:57;26.20;;;18.80;;
54123;SDS011;55741;53.252;5.788;2023-04-28T11:19:26;24.95;;;18.02;;
54123;SDS011;55741;53.252;5.788;2023-04-28T11:22:12;26.10;;;19.70;;
54123;SDS011;55741;53.252;5.788;2023-04-28T11:24:58;26.65;;;18.90;;
54123;SDS011;55741;53.252;5.788;2023-04-28T11:27:28;27.35;;;20.55;;
54123;SDS011;55741;53.252;5.788;2023-04-28T11:29:55;26.05;;;19.20;;
54123;SDS011;55741;53.252;5.788;2023-04-28T11:32:40;26.98;;;17.77;;
54123;SDS011;55741;53.252;5.788;2023-04-28T11:35:06;23.77;;;18.55;;
54123;SDS011;55741;53.252;5.788;2023-04-28T11:37:33;24.33;;;19.55;;
54123;SDS011;55741;53.252;5.788;2023-04-28T11:40:08;21.90;;;18.45;;
54123;SDS011;55741;53.252;5.788;2023-04-28T11:42:45;27.48;;;20.92;;
54123;SDS011;55741;53.252;5.788;2023-04-28T11:45:12;26.23;;;19.50;;
54123;SDS011;55741;53.252;5.788;2023-04-28T11:47:38;24.50;;;20.15;;
54123;SDS011;55741;53.252;5.788;2023-04-28T11:50:05;25.52;;;20.00;;
54123;SDS011;55741;53.252;5.788;2023-04-28T11:52:31;27.15;;;21.60;;
54123;SDS011;55741;53.252;5.788;2023-04-28T11:54:57;28.70;;;20.73;;
54123;SDS011;55741;53.252;5.788;2023-04-28T11:57:26;25.85;;;21.25;;
54123;SDS011;55741;53.252;5.788;2023-04-28T11:59:52;28.38;;;21.58;;
54123;SDS011;55741;53.252;5.788;2023-04-28T12:02:30;25.83;;;20.65;;
54123;SDS011;55741;53.252;5.788;2023-04-28T12:05:03;25.60;;;19.52;;
54123;SDS011;55741;53.252;5.788;2023-04-28T12:07:38;26.70;;;20.08;;
54123;SDS011;55741;53.252;5.788;2023-04-28T12:10:08;29.83;;;20.17;;
54123;SDS011;55741;53.252;5.788;2023-04-28T12:12:40;24.40;;;19.40;;
54123;SDS011;55741;53.252;5.788;2023-04-28T12:15:07;27.48;;;20.05;;
54123;SDS011;55741;53.252;5.788;2023-04-28T12:17:34;28.95;;;20.23;;
54123;SDS011;55741;53.252;5.788;2023-04-28T12:20:06;24.52;;;20.30;;
54123;SDS011;55741;53.252;5.788;2023-04-28T12:25:11;23.60;;;19.48;;
54123;SDS011;55741;53.252;5.788;2023-04-28T12:27:40;25.10;;;19.30;;
54123;SDS011;55741;53.252;5.788;2023-04-28T12:32:39;29.15;;;20.20;;
54123;SDS011;55741;53.252;5.788;2023-04-28T12:35:07;25.15;;;20.35;;
54123;SDS011;55741;53.252;5.788;2023-04-28T12:37:34;23.50;;;18.63;;
54123;SDS011;55741;53.252;5.788;2023-04-28T12:40:02;26.15;;;19.02;;
54123;SDS011;55741;53.252;5.788;2023-04-28T12:42:29;23.92;;;20.98;;
54123;SDS011;55741;53.252;5.788;2023-04-28T12:44:55;27.60;;;20.90;;
54123;SDS011;55741;53.252;5.788;2023-04-28T12:47:21;32.33;;;23.27;;
54123;SDS011;55741;53.252;5.788;2023-04-28T12:49:47;30.70;;;22.45;;
54123;SDS011;55741;53.252;5.788;2023-04-28T12:52:17;28.45;;;23.58;;
54123;SDS011;55741;53.252;5.788;2023-04-28T12:54:46;38.40;;;23.77;;
54123;SDS011;55741;53.252;5.788;2023-04-28T12:57:16;31.00;;;23.02;;
54123;SDS011;55741;53.252;5.788;2023-04-28T12:59:43;27.95;;;22.98;;
54123;SDS011;55741;53.252;5.788;2023-04-28T13:02:12;32.03;;;24.35;;
54123;SDS011;55741;53.252;5.788;2023-04-28T13:04:39;30.05;;;23.45;;
54123;SDS011;55741;53.252;5.788;2023-04-28T13:07:07;29.60;;;24.48;;
54123;SDS011;55741;53.252;5.788;2023-04-28T13:09:33;26.50;;;21.75;;
54123;SDS011;55741;53.252;5.788;2023-04-28T13:11:59;29.02;;;22.45;;
54123;SDS011;55741;53.252;5.788;2023-04-28T13:14:27;27.55;;;21.58;;
54123;SDS011;55741;53.252;5.788;2023-04-28T13:16:53;26.58;;;21.80;;
54123;SDS011;55741;53.252;5.788;2023-04-28T13:19:19;31.65;;;22.17;;
54123;SDS011;55741;53.252;5.788;2023-04-28T13:21:45;27.02;;;22.98;;
54123;SDS011;55741;53.252;5.788;2023-04-28T13:24:14;27.35;;;21.60;;
54123;SDS011;55741;53.252;5.788;2023-04-28T13:26:40;31.05;;;23.73;;
54123;SDS011;55741;53.252;5.788;2023-04-28T13:29:09;30.75;;;24.67;;
54123;SDS011;55741;53.252;5.788;2023-04-28T13:31:35;31.90;;;23.75;;
54123;SDS011;55741;53.252;5.788;2023-04-28T13:34:01;35.50;;;23.40;;
54123;SDS011;55741;53.252;5.788;2023-04-28T13:36:28;39.30;;;28.50;;
54123;SDS011;55741;53.252;5.788;2023-04-28T13:38:54;40.97;;;27.35;;
54123;SDS011;55741;53.252;5.788;2023-04-28T13:41:20;31.67;;;25.35;;
54123;SDS011;55741;53.252;5.788;2023-04-28T13:43:46;29.67;;;24.60;;
54123;SDS011;55741;53.252;5.788;2023-04-28T13:46:12;35.15;;;27.48;;
54123;SDS011;55741;53.252;5.788;2023-04-28T13:48:39;37.50;;;28.95;;
54123;SDS011;55741;53.252;5.788;2023-04-28T13:51:05;37.13;;;26.88;;
54123;SDS011;55741;53.252;5.788;2023-04-28T13:53:32;31.67;;;25.33;;
54123;SDS011;55741;53.252;5.788;2023-04-28T13:56:00;32.13;;;26.60;;
54123;SDS011;55741;53.252;5.788;2023-04-28T13:58:26;28.00;;;24.73;;
54123;SDS011;55741;53.252;5.788;2023-04-28T14:00:53;29.83;;;24.95;;
54123;SDS011;55741;53.252;5.788;2023-04-28T14:03:21;30.40;;;24.38;;
54123;SDS011;55741;53.252;5.788;2023-04-28T14:05:48;30.77;;;24.77;;
54123;SDS011;55741;53.252;5.788;2023-04-28T14:08:16;33.00;;;25.27;;
54123;SDS011;55741;53.252;5.788;2023-04-28T14:10:42;31.50;;;25.88;;
54123;SDS011;55741;53.252;5.788;2023-04-28T14:13:08;30.33;;;25.98;;
54123;SDS011;55741;53.252;5.788;2023-04-28T14:15:34;35.67;;;29.45;;
54123;SDS011;55741;53.252;5.788;2023-04-28T14:18:01;30.98;;;26.38;;
54123;SDS011;55741;53.252;5.788;2023-04-28T14:20:27;28.80;;;25.42;;
54123;SDS011;55741;53.252;5.788;2023-04-28T14:22:52;34.53;;;27.50;;
54123;SDS011;55741;53.252;5.788;2023-04-28T14:25:18;32.92;;;28.38;;
54123;SDS011;55741;53.252;5.788;2023-04-28T14:27:46;31.65;;;28.20;;
54123;SDS011;55741;53.252;5.788;2023-04-28T14:30:17;33.90;;;28.80;;
54123;SDS011;55741;53.252;5.788;2023-04-28T14:32:43;32.17;;;28.48;;
54123;SDS011;55741;53.252;5.788;2023-04-28T14:35:10;36.25;;;28.08;;
54123;SDS011;55741;53.252;5.788;2023-04-28T14:37:37;31.15;;;27.85;;
54123;SDS011;55741;53.252;5.788;2023-04-28T14:40:03;31.77;;;28.30;;
54123;SDS011;55741;53.252;5.788;2023-04-28T14:42:31;32.28;;;27.42;;
54123;SDS011;55741;53.252;5.788;2023-04-28T14:45:00;30.30;;;26.60;;
54123;SDS011;55741;53.252;5.788;2023-04-28T14:47:33;31.20;;;27.58;;
54123;SDS011;55741;53.252;5.788;2023-04-28T14:50:01;29.77;;;26.60;;
54123;SDS011;55741;53.252;5.788;2023-04-28T14:52:27;34.00;;;27.70;;
54123;SDS011;55741;53.252;5.788;2023-04-28T14:54:56;31.10;;;27.35;;
54123;SDS011;55741;53.252;5.788;2023-04-28T14:57:23;27.10;;;23.13;;
54123;SDS011;55741;53.252;5.788;2023-04-28T14:59:49;28.95;;;25.58;;
54123;SDS011;55741;53.252;5.788;2023-04-28T15:02:19;33.10;;;26.55;;
54123;SDS011;55741;53.252;5.788;2023-04-28T15:04:50;30.05;;;25.80;;
54123;SDS011;55741;53.252;5.788;2023-04-28T15:07:17;32.97;;;28.13;;
54123;SDS011;55741;53.252;5.788;2023-04-28T15:09:44;27.63;;;24.42;;